• Join FlightAware (Why Join?)
  • Login
  • US Flag 
10:15PM EST


 

Airport Tracker/Info


-or-


 

Live Flight TrackerFlight Track Log ✈ SKW5500 ✈ 21-Apr-2013 ✈ KASE - KDEN

Flight Track Log - Related Links

Times and Time Zones

All times are in EDT time to prevent confusion due to time zone crossing. See the SKW5500 flight status page for this flight to view local times or setup timezone preferences in your user account.

Time Position Orientation Groundspeed Altitude Reporting Facility
EDT Latitude Longitude Course Direction KTS MPH feet Rate Location/Type
06:39PM 39.2794 -106.9497 296° West 267 307 11,800  Level Denver Center
06:40PM 39.4070 -106.7868 101° East  Level FlightAware Approximate
06:40PM 39.3350 -107.0083 321° Northwest 286 329 14,800  Level Denver Center
06:41PM 39.3876 -106.6609 101° East  Level FlightAware Approximate
06:41PM 39.3936 -106.9289 46° Northeast 336 387 17,200  Level Denver Center
06:42PM 39.3639 -106.5363 104° East  Level FlightAware Approximate
06:42PM 39.3908 -106.7803 91° East 356 410 19,900  Level Denver Center
06:43PM 39.3333 -106.4166 90° East  Level FlightAware Approximate
06:43PM 39.3714 -106.6294 99° East 382 440 22,000  Level Denver Center
06:44PM 39.3539 -106.4875 99° East 420 483 23,400 1,440 Climbing Denver Center
06:45PM 39.3581 -106.3158 88° East 428 493 25,000 480 Climbing Denver Center
06:46PM 39.3672 -106.1494 86° East 440 506 24,400 -1,020 Descending Denver Center
06:47PM 39.3739 -105.9967 87° East 425 489 23,000 -1,320 Descending Denver Center
06:48PM 39.3800 -105.8494 87° East 410 472 21,700 -1,260 Descending Denver Center
06:49PM 39.3869 -105.7025 86° East 408 470 20,400 -1,260 Descending Denver Center
06:50PM 39.3919 -105.5636 87° East 389 448 19,100 -1,380 Descending Denver Center
06:51PM 39.3989 -105.4236 86° East 365 420 17,600 -1,560 Descending Denver Center
06:52PM 39.4033 -105.2986 87° East 350 403 15,900 -1,620 Descending Denver Center
06:53PM 39.4089 -105.1808 86° East 335 386 14,300 -1,200 Descending Denver Center
06:54PM 39.3969 -105.0642 98° East 305 351 13,500 -660 Descending Denver Center
06:55PM 39.3764 -104.9683 105° East 279 321 13,000 -300 Descending Denver Center
06:56PM 39.3556 -104.8728 106° East 261 300 13,000 -540 Level Denver Center
06:57PM 39.3358 -104.7847 106° East 256 295 11,900 -1,320 Descending Denver Center
06:58PM 39.3397 -104.6894 87° East 249 287 10,400 -900 Descending Denver Center
06:59PM 39.3847 -104.6561 30° Northeast 231 266 10,100 -180 Descending Denver Center
07:00PM 39.4444 -104.6653 353° North 218 251 10,100  Level Denver Center
07:01PM 39.5067 -104.6644 North 210 242 10,100 -60 Level Denver Center
07:02PM 39.5608 -104.6631 North 197 227 10,000 -60 Descending Denver Center
07:03PM 39.6081 -104.6642 359° North 162 186 10,000 -480 Level Denver Center
07:04PM 39.6539 -104.6628 North 163 188 9,100 -840 Descending Denver Center
07:05PM 39.6981 -104.6617 North 161 185 8,300 -780 Descending Denver Center